Time;durP1;ratioP1;P1;durP2;ratioP2;P2;SDS_P1;SDS_P2;PMS_P1;PMS_P2;Temp;Humidity;BMP_temperature;BMP_pressure;BME280_temperature;BME280_humidity;BME280_pressure;Samples;Min_cycle;Max_cycle;Signal;HPM_P1;HPM_P2
2022/04/16 00:01:20;;;;;;;18.00;9.90;;;5.90;1.00;;;;;;5031281;28;20195;-50
2022/04/16 00:03:46;;;;;;;19.00;8.93;;;5.90;1.00;;;;;;5024287;28;20198;-49
2022/04/16 00:06:12;;;;;;;14.60;8.33;;;5.80;1.00;;;;;;5030631;28;20197;-50
2022/04/16 00:08:37;;;;;;;16.53;8.93;;;5.80;1.00;;;;;;5031733;28;20621;-50
2022/04/16 00:11:05;;;;;;;16.30;9.17;;;5.70;1.00;;;;;;5030878;28;20179;-50
2022/04/16 00:13:31;;;;;;;13.00;8.30;;;5.60;1.00;;;;;;5031079;28;20787;-49
2022/04/16 00:15:57;;;;;;;14.33;9.47;;;5.50;1.00;;;;;;5029213;28;20460;-50
2022/04/16 00:18:23;;;;;;;14.93;8.40;;;5.50;1.00;;;;;;5013883;28;20520;-50
2022/04/16 00:20:49;;;;;;;14.23;8.50;;;5.50;1.00;;;;;;5030405;28;20580;-50
2022/04/16 00:23:22;;;;;;;12.33;7.90;;;5.50;1.00;;;;;;5022083;28;20211;-50
2022/04/16 00:25:48;;;;;;;12.50;7.70;;;5.40;1.00;;;;;;5031639;28;20950;-50
2022/04/16 00:28:15;;;;;;;11.57;7.70;;;5.40;1.00;;;;;;5031036;28;20520;-49
2022/04/16 00:30:40;;;;;;;15.13;7.80;;;5.40;1.00;;;;;;5042553;28;20417;-49
2022/04/16 00:33:30;;;;;;;19.03;8.87;;;5.40;1.00;;;;;;5031765;28;20931;-50
2022/04/16 00:35:55;;;;;;;12.57;8.03;;;5.30;1.00;;;;;;5002526;28;20207;-50
2022/04/16 00:38:21;;;;;;;15.53;8.00;;;5.30;1.00;;;;;;4997247;28;20493;-49
2022/04/16 00:40:47;;;;;;;13.57;7.87;;;5.20;1.00;;;;;;5009323;28;20705;-50
2022/04/16 00:43:25;;;;;;;9.97;7.20;;;5.10;1.00;;;;;;5009574;28;20185;-50
2022/04/16 00:45:52;;;;;;;11.53;7.10;;;5.10;1.00;;;;;;5008999;28;20231;-50
2022/04/16 00:48:19;;;;;;;11.00;6.87;;;5.00;1.00;;;;;;5008952;28;20593;-50
2022/04/16 00:50:46;;;;;;;12.13;6.10;;;5.10;1.00;;;;;;5009923;28;20443;-50
2022/04/16 00:53:12;;;;;;;10.13;6.67;;;5.00;1.00;;;;;;5009332;28;20427;-50
2022/04/16 00:55:38;;;;;;;11.90;6.70;;;5.00;1.00;;;;;;5009280;28;20924;-49
2022/04/16 00:58:04;;;;;;;11.30;6.07;;;5.10;1.00;;;;;;5008762;28;20478;-49
2022/04/16 01:00:30;;;;;;;8.83;5.90;;;5.00;1.00;;;;;;5009036;28;20470;-55
2022/04/16 01:02:56;;;;;;;11.07;5.43;;;5.10;1.00;;;;;;5008460;28;20184;-49
2022/04/16 01:05:22;;;;;;;8.70;5.50;;;5.10;1.00;;;;;;5008292;28;20187;-50
2022/04/16 01:07:57;;;;;;;8.07;5.00;;;5.10;1.00;;;;;;5026983;28;20433;-49
2022/04/16 01:10:28;;;;;;;12.50;6.40;;;5.00;1.00;;;;;;5029348;28;20182;-49
2022/04/16 01:12:55;;;;;;;11.70;6.37;;;4.90;1.00;;;;;;5028572;28;20414;-49
2022/04/16 01:15:22;;;;;;;16.53;9.03;;;4.80;1.00;;;;;;5030599;28;20421;-51
2022/04/16 01:17:48;;;;;;;12.50;6.63;;;4.70;1.00;;;;;;5012910;28;20861;-50
2022/04/16 01:20:16;;;;;;;12.77;7.40;;;4.70;1.00;;;;;;5030192;28;20532;-50
2022/04/16 01:22:42;;;;;;;11.87;6.53;;;4.70;1.00;;;;;;5027103;28;21092;-49
2022/04/16 01:25:08;;;;;;;8.10;5.80;;;4.60;1.00;;;;;;5030047;28;20469;-49
2022/04/16 01:27:43;;;;;;;81.80;41.30;;;4.50;1.00;;;;;;5040189;28;20428;-50
2022/04/16 01:30:10;;;;;;;38.83;25.33;;;4.50;1.00;;;;;;5034950;28;20181;-49
2022/04/16 01:32:36;;;;;;;15.83;9.93;;;4.40;1.00;;;;;;5030015;28;20904;-49
2022/04/16 01:35:03;;;;;;;13.50;8.00;;;4.40;1.00;;;;;;5030302;28;20426;-49
2022/04/16 01:37:33;;;;;;;11.33;7.57;;;4.40;1.00;;;;;;5029063;28;20438;-50
2022/04/16 01:40:00;;;;;;;11.40;6.40;;;4.30;1.00;;;;;;5012554;28;20430;-50
2022/04/16 01:42:25;;;;;;;10.50;5.67;;;4.40;1.00;;;;;;5029405;28;20462;-50
2022/04/16 01:44:51;;;;;;;6.80;5.40;;;4.40;1.00;;;;;;5030808;28;20445;-56
2022/04/16 01:47:17;;;;;;;9.43;5.40;;;4.30;1.00;;;;;;5029602;28;20190;-49
2022/04/16 01:49:43;;;;;;;13.30;5.30;;;4.20;1.00;;;;;;5030224;28;20445;-50
2022/04/16 01:52:09;;;;;;;8.43;5.30;;;4.10;1.00;;;;;;5027855;28;20520;-49
2022/04/16 01:54:35;;;;;;;14.03;5.97;;;4.10;1.00;;;;;;5029071;28;20253;-49
2022/04/16 01:57:01;;;;;;;11.27;5.70;;;4.10;1.00;;;;;;5028924;28;20505;-49
2022/04/16 01:59:28;;;;;;;7.83;5.57;;;4.10;1.00;;;;;;5014148;28;20447;-50
2022/04/16 02:01:56;;;;;;;13.47;6.47;;;4.00;1.00;;;;;;5028225;28;20477;-50
2022/04/16 02:04:22;;;;;;;9.43;5.83;;;3.90;1.00;;;;;;5030148;28;20441;-49
2022/04/16 02:06:50;;;;;;;8.37;5.47;;;3.90;1.00;;;;;;5028993;28;20904;-51
2022/04/16 02:09:19;;;;;;;14.07;5.20;;;3.80;1.00;;;;;;5029172;28;20908;-50
2022/04/16 02:11:45;;;;;;;6.83;4.93;;;3.80;1.00;;;;;;5029187;28;20445;-49
2022/04/16 02:14:10;;;;;;;6.30;4.80;;;3.80;1.00;;;;;;5028920;28;20437;-49
2022/04/16 02:16:36;;;;;;;9.40;6.50;;;3.90;1.00;;;;;;5030391;28;20221;-49
2022/04/16 02:19:01;;;;;;;10.40;5.67;;;3.80;1.00;;;;;;5029398;28;20192;-50
2022/04/16 02:21:28;;;;;;;12.23;5.80;;;3.70;1.00;;;;;;5028321;28;20657;-49
2022/04/16 02:23:54;;;;;;;8.27;5.20;;;3.80;1.00;;;;;;5029202;28;20187;-49
2022/04/16 02:26:22;;;;;;;9.07;5.60;;;3.80;1.00;;;;;;5029163;28;21320;-49
2022/04/16 02:28:48;;;;;;;9.57;4.53;;;3.80;1.00;;;;;;5028289;28;20453;-49
2022/04/16 02:31:14;;;;;;;11.20;5.40;;;3.80;1.00;;;;;;5029523;28;20448;-49
2022/04/16 02:33:40;;;;;;;8.70;4.60;;;3.90;1.00;;;;;;5029566;28;20197;-50
2022/04/16 02:36:07;;;;;;;6.53;4.70;;;3.80;1.00;;;;;;5034676;28;20194;-50
2022/04/16 02:38:33;;;;;;;9.43;4.43;;;3.80;1.00;;;;;;5029411;28;20187;-49
2022/04/16 02:40:58;;;;;;;8.70;5.00;;;3.70;1.00;;;;;;5028990;28;20954;-49
2022/04/16 02:43:24;;;;;;;6.40;4.27;;;3.60;1.00;;;;;;5029891;28;20444;-49
2022/04/16 02:48:34;;;;;;;4.97;3.97;;;3.60;1.00;;;;;;5032687;28;20245;-49
2022/04/16 02:50:59;;;;;;;8.27;4.10;;;3.50;1.00;;;;;;5032807;28;20433;-50
2022/04/16 02:53:26;;;;;;;5.47;3.50;;;3.50;1.00;;;;;;5032065;28;20201;-49
2022/04/16 02:55:55;;;;;;;4.20;3.43;;;3.40;1.00;;;;;;5033591;28;20240;-49
2022/04/16 02:58:21;;;;;;;7.23;4.37;;;3.40;1.00;;;;;;5032634;28;20433;-49
2022/04/16 03:00:46;;;;;;;5.13;3.60;;;3.40;1.00;;;;;;5034860;28;20464;-50
2022/04/16 03:03:12;;;;;;;5.53;3.90;;;3.40;1.00;;;;;;5034937;28;20520;-50
2022/04/16 03:05:37;;;;;;;6.53;3.93;;;3.30;1.00;;;;;;5024577;28;20183;-54
2022/04/16 03:08:06;;;;;;;5.30;3.60;;;3.20;1.00;;;;;;5003266;28;20621;-49
2022/04/16 03:10:31;;;;;;;5.67;3.77;;;3.10;1.00;;;;;;5032720;28;20174;-50
2022/04/16 03:12:57;;;;;;;4.13;3.37;;;3.20;1.00;;;;;;5034402;28;20432;-49
2022/04/16 03:18:09;;;;;;;5.30;3.30;;;3.10;1.00;;;;;;5032469;28;20204;-49
2022/04/16 03:20:37;;;;;;;6.53;3.60;;;3.00;1.00;;;;;;5032536;28;20576;-49
2022/04/16 03:23:03;;;;;;;9.63;4.17;;;2.90;1.00;;;;;;5032684;28;20430;-49
2022/04/16 03:25:29;;;;;;;9.60;3.90;;;2.80;1.00;;;;;;5032423;28;20425;-49
2022/04/16 03:27:55;;;;;;;5.57;3.07;;;2.80;1.00;;;;;;5032429;28;20904;-50
2022/04/16 03:30:23;;;;;;;4.10;3.10;;;2.80;1.00;;;;;;5032243;28;20810;-49
2022/04/16 03:32:49;;;;;;;4.70;3.80;;;2.70;1.00;;;;;;5032252;28;20422;-50
2022/04/16 03:35:18;;;;;;;9.00;4.23;;;2.70;1.00;;;;;;5032506;28;20461;-49
2022/04/16 03:37:43;;;;;;;4.90;4.40;;;2.70;17.60;;;;;;5032113;28;20533;-49
2022/04/16 03:40:09;;;;;;;6.93;4.40;;;2.70;33.30;;;;;;5031336;28;20865;-50
2022/04/16 03:42:53;;;;;;;6.70;4.13;;;2.70;74.10;;;;;;5031789;28;20210;-50
2022/04/16 03:45:21;;;;;;;7.17;3.97;;;2.70;49.40;;;;;;5032336;28;20540;-50
2022/04/16 03:47:50;;;;;;;6.33;3.70;;;2.70;50.70;;;;;;5014210;28;20485;-49
2022/04/16 03:50:18;;;;;;;5.10;3.43;;;2.60;89.00;;;;;;5037781;28;20421;-50
2022/04/16 03:52:45;;;;;;;7.83;3.87;;;2.60;36.70;;;;;;5032382;28;20430;-49
2022/04/16 04:00:44;;;;;;;6.40;3.50;;;2.60;29.30;;;;;;5032552;28;20472;-50
2022/04/16 04:03:11;;;;;;;11.80;3.30;;;2.60;47.30;;;;;;5030572;28;20804;-49
2022/04/16 04:05:37;;;;;;;3.50;3.13;;;2.50;42.70;;;;;;5032582;28;20428;-50
2022/04/16 04:08:05;;;;;;;6.03;2.83;;;2.50;99.90;;;;;;5032409;28;20432;-49
2022/04/16 04:10:30;;;;;;;4.33;3.17;;;2.50;51.90;;;;;;5039290;28;20422;-50
2022/04/16 04:12:56;;;;;;;3.80;3.10;;;2.40;2.20;;;;;;5013454;28;20437;-50
2022/04/16 04:15:21;;;;;;;4.00;3.23;;;2.30;7.70;;;;;;5032331;28;20183;-50
2022/04/16 04:17:48;;;;;;;5.47;3.50;;;2.20;12.00;;;;;;5043248;28;20676;-50
2022/04/16 04:20:14;;;;;;;6.57;3.37;;;2.10;27.10;;;;;;5031826;28;20389;-51
2022/04/16 04:22:39;;;;;;;5.30;3.27;;;2.00;90.80;;;;;;5031235;28;21038;-50
2022/04/16 04:25:05;;;;;;;3.87;3.10;;;2.00;99.90;;;;;;5031756;28;20190;-50
2022/04/16 04:27:30;;;;;;;6.50;3.53;;;2.00;99.90;;;;;;5021172;28;20183;-50
2022/04/16 04:29:56;;;;;;;4.30;3.80;;;2.00;99.90;;;;;;5025151;28;20452;-50
2022/04/16 04:32:22;;;;;;;3.93;3.10;;;2.00;99.90;;;;;;5030389;28;20258;-50
2022/04/16 04:34:47;;;;;;;5.60;3.70;;;1.90;99.90;;;;;;5031960;28;20445;-50
2022/04/16 04:37:13;;;;;;;4.50;3.80;;;1.90;99.90;;;;;;5030946;28;20195;-49
2022/04/16 04:39:38;;;;;;;4.47;3.30;;;1.90;99.90;;;;;;5030742;28;20187;-50
2022/04/16 04:42:04;;;;;;;9.80;3.93;;;1.90;99.90;;;;;;5031549;28;20665;-50
2022/04/16 04:44:30;;;;;;;6.53;3.80;;;1.80;99.90;;;;;;5031310;28;20187;-50
2022/04/16 04:46:55;;;;;;;5.47;3.53;;;1.80;99.90;;;;;;5030360;28;20194;-50
2022/04/16 04:49:21;;;;;;;6.63;3.63;;;1.80;99.90;;;;;;5030770;28;20289;-50
2022/04/16 04:51:46;;;;;;;6.03;3.87;;;1.70;99.90;;;;;;5031445;28;20187;-55
2022/04/16 04:54:12;;;;;;;7.27;3.53;;;1.70;99.90;;;;;;5031003;28;20693;-50
2022/04/16 04:56:38;;;;;;;8.60;3.43;;;1.80;99.90;;;;;;5030353;28;20294;-50
2022/04/16 04:59:03;;;;;;;4.03;3.57;;;1.80;99.90;;;;;;5031088;28;20186;-54
2022/04/16 05:01:29;;;;;;;5.30;3.77;;;1.90;99.90;;;;;;5030016;28;20286;-50
2022/04/16 05:03:55;;;;;;;9.10;3.70;;;1.90;99.90;;;;;;5030005;28;20182;-50
2022/04/16 05:06:21;;;;;;;4.93;3.67;;;2.00;99.90;;;;;;5036415;28;20183;-50
2022/04/16 05:08:47;;;;;;;6.30;3.70;;;2.00;99.90;;;;;;5033652;28;20987;-50
2022/04/16 05:11:12;;;;;;;5.27;3.77;;;2.00;99.90;;;;;;5043228;28;20191;-50
2022/04/16 05:13:38;;;;;;;4.23;3.30;;;2.10;99.90;;;;;;5034622;28;20528;-50
2022/04/16 05:16:04;;;;;;;5.87;3.97;;;2.10;99.90;;;;;;5030931;28;20190;-50
2022/04/16 05:18:30;;;;;;;5.00;3.70;;;2.20;99.90;;;;;;5030481;28;20644;-50
2022/04/16 05:20:55;;;;;;;4.30;3.13;;;2.20;99.90;;;;;;5030919;28;20469;-50
2022/04/16 05:23:21;;;;;;;4.70;3.37;;;2.40;99.90;;;;;;5030248;28;20190;-50
2022/04/16 05:25:46;;;;;;;4.40;3.27;;;2.50;99.90;;;;;;5030093;28;20657;-50
2022/04/16 05:28:12;;;;;;;8.40;3.20;;;2.70;99.90;;;;;;5030174;28;20198;-50
2022/04/16 05:30:48;;;;;;;4.83;3.17;;;2.80;99.90;;;;;;5030088;28;20191;-49
2022/04/16 05:36:03;;;;;;;11.87;3.33;;;3.10;99.90;;;;;;5029778;28;20476;-50
2022/04/16 05:38:28;;;;;;;5.93;3.03;;;3.20;99.90;;;;;;5012297;28;20422;-49
2022/04/16 05:40:54;;;;;;;5.47;2.80;;;3.40;99.90;;;;;;5030307;28;20475;-49
2022/04/16 05:43:19;;;;;;;4.17;2.50;;;3.60;34.00;;;;;;5031352;28;20202;-50
2022/04/16 05:45:45;;;;;;;2.63;2.43;;;3.80;1.00;;;;;;5030403;28;20194;-49
2022/04/16 05:48:10;;;;;;;6.20;2.83;;;4.00;1.00;;;;;;5030357;28;20235;-49
2022/04/16 05:50:37;;;;;;;2.53;2.33;;;4.20;1.00;;;;;;5029864;28;20194;-49
2022/04/16 05:53:05;;;;;;;7.30;2.83;;;4.40;1.00;;;;;;5036211;28;20206;-49
2022/04/16 05:55:31;;;;;;;5.70;2.97;;;4.50;1.00;;;;;;5029017;28;20421;-49
2022/04/16 05:57:56;;;;;;;4.63;2.00;;;4.70;1.00;;;;;;5029679;28;20778;-49
2022/04/16 06:00:22;;;;;;;4.73;2.20;;;5.00;1.00;;;;;;5029960;28;20183;-49
2022/04/16 06:02:48;;;;;;;2.33;1.97;;;5.20;1.00;;;;;;5029628;28;20190;-48
2022/04/16 06:05:13;;;;;;;3.57;2.03;;;5.40;99.90;;;;;;5030146;28;20187;-49
2022/04/16 06:07:39;;;;;;;2.30;2.00;;;5.70;99.90;;;;;;5029663;28;20198;-49
2022/04/16 06:10:05;;;;;;;4.57;2.30;;;5.90;99.90;;;;;;5030184;28;20641;-49
2022/04/16 06:12:30;;;;;;;2.80;2.10;;;6.20;99.90;;;;;;5029504;28;20676;-49
2022/04/16 06:14:56;;;;;;;3.43;2.13;;;6.30;99.90;;;;;;5029627;28;20491;-49
2022/04/16 06:17:21;;;;;;;2.97;1.70;;;6.50;99.90;;;;;;5029417;28;20175;-49
2022/04/16 06:19:47;;;;;;;6.50;1.90;;;6.80;99.90;;;;;;5029302;28;21027;-49
2022/04/16 06:22:13;;;;;;;3.60;2.10;;;6.90;99.90;;;;;;5028752;28;20191;-49
2022/04/16 06:24:42;;;;;;;2.10;1.90;;;7.10;99.90;;;;;;5029644;28;20270;-48
2022/04/16 06:27:08;;;;;;;2.50;2.10;;;7.30;99.90;;;;;;5029489;28;20560;-49
2022/04/16 06:29:34;;;;;;;5.07;2.13;;;7.60;99.90;;;;;;5029759;28;20432;-49
2022/04/16 06:32:00;;;;;;;2.30;2.10;;;7.80;99.90;;;;;;5029701;28;20437;-49
2022/04/16 06:34:27;;;;;;;2.87;1.87;;;8.00;99.90;;;;;;5028974;28;20206;-49
2022/04/16 06:36:53;;;;;;;3.43;1.80;;;8.00;99.90;;;;;;5015215;28;20493;-49
2022/04/16 06:39:18;;;;;;;4.13;2.17;;;8.00;99.90;;;;;;5029596;28;20433;-49
2022/04/16 06:41:44;;;;;;;2.93;2.00;;;8.10;99.90;;;;;;5012107;28;20467;-48
2022/04/16 06:44:09;;;;;;;3.07;2.23;;;8.20;99.90;;;;;;5029900;28;20282;-48
2022/04/16 06:46:35;;;;;;;2.67;1.90;;;8.30;99.90;;;;;;5022732;28;20199;-49
2022/04/16 06:49:01;;;;;;;3.20;2.10;;;8.50;99.90;;;;;;5019707;28;20234;-48
2022/04/16 06:51:27;;;;;;;5.10;2.33;;;8.70;99.90;;;;;;5027334;28;20437;-48
2022/04/16 06:53:52;;;;;;;2.10;1.73;;;8.80;99.90;;;;;;5029555;28;20193;-48
2022/04/16 06:56:18;;;;;;;1.50;1.40;;;9.00;99.90;;;;;;5027672;28;20183;-48
2022/04/16 06:58:43;;;;;;;2.30;1.73;;;9.10;99.90;;;;;;5028247;28;20187;-49
2022/04/16 07:01:09;;;;;;;6.00;1.40;;;9.30;99.90;;;;;;5019880;28;20250;-49
2022/04/16 07:03:34;;;;;;;2.20;1.70;;;9.50;99.90;;;;;;5029589;28;20260;-48
2022/04/16 07:06:00;;;;;;;1.40;1.13;;;9.60;99.90;;;;;;5027336;28;20192;-48
2022/04/16 07:08:26;;;;;;;2.00;1.00;;;9.90;99.90;;;;;;5009745;28;20433;-48
2022/04/16 07:10:51;;;;;;;1.30;1.20;;;10.00;99.90;;;;;;5029811;28;20194;-48
2022/04/16 07:13:17;;;;;;;1.30;1.17;;;10.10;99.90;;;;;;5027686;28;20536;-48
2022/04/16 07:15:43;;;;;;;2.13;1.13;;;10.30;99.90;;;;;;5029940;28;20190;-48
2022/04/16 07:18:08;;;;;;;1.73;1.40;;;10.50;99.90;;;;;;5027591;28;20273;-48
2022/04/16 07:20:34;;;;;;;2.03;1.37;;;10.80;99.90;;;;;;5028977;28;20191;-48
2022/04/16 07:22:59;;;;;;;2.67;1.40;;;11.10;99.90;;;;;;5028535;28;20183;-48
2022/04/16 07:25:26;;;;;;;3.73;1.57;;;11.30;99.90;;;;;;5029276;28;20265;-48
2022/04/16 07:27:52;;;;;;;2.97;1.53;;;11.40;99.90;;;;;;5028187;28;20186;-48
2022/04/16 07:30:17;;;;;;;3.37;1.53;;;11.50;99.90;;;;;;5030075;28;20504;-48
2022/04/16 07:32:43;;;;;;;4.30;1.30;;;11.80;99.90;;;;;;5031984;28;20438;-49
2022/04/16 07:35:09;;;;;;;2.33;1.30;;;12.00;99.90;;;;;;5032008;28;20553;-49
2022/04/16 07:37:35;;;;;;;2.43;1.40;;;12.10;99.90;;;;;;5031275;28;20198;-48
2022/04/16 07:40:01;;;;;;;1.50;1.40;;;12.20;99.90;;;;;;5032248;28;20425;-49
2022/04/16 07:42:27;;;;;;;2.70;1.17;;;12.30;99.90;;;;;;5031494;28;20210;-48
2022/04/16 07:44:53;;;;;;;2.20;1.00;;;12.50;99.90;;;;;;5032148;28;20226;-52
2022/04/16 07:47:19;;;;;;;1.53;1.03;;;12.50;99.90;;;;;;5031614;28;20743;-48
2022/04/16 07:49:45;;;;;;;2.03;1.40;;;12.50;99.90;;;;;;5031871;28;20421;-48
2022/04/16 07:52:11;;;;;;;1.93;1.30;;;12.80;99.90;;;;;;5030749;28;20448;-49
2022/04/16 07:54:37;;;;;;;2.30;1.10;;;13.10;99.90;;;;;;5030788;28;20641;-49
2022/04/16 07:57:06;;;;;;;1.60;1.20;;;13.40;99.90;;;;;;5012584;28;20337;-48
2022/04/16 07:59:32;;;;;;;2.70;1.20;;;13.50;99.90;;;;;;5012483;28;20518;-49
2022/04/16 08:01:58;;;;;;;1.60;1.50;;;13.40;99.90;;;;;;5021494;28;20630;-49
2022/04/16 08:04:23;;;;;;;1.73;1.20;;;13.30;99.90;;;;;;5029212;28;20429;-48
2022/04/16 08:06:49;;;;;;;2.60;1.30;;;13.40;99.90;;;;;;5030310;28;20232;-49
2022/04/16 08:09:14;;;;;;;1.60;1.17;;;13.20;99.90;;;;;;5034000;28;20227;-48
2022/04/16 08:11:40;;;;;;;4.03;1.80;;;13.40;99.90;;;;;;5028936;28;20198;-49
2022/04/16 08:14:05;;;;;;;4.40;1.37;;;13.80;99.90;;;;;;5030152;28;20179;-47
2022/04/16 08:16:31;;;;;;;4.47;1.53;;;13.90;99.90;;;;;;5030290;28;20187;-49
2022/04/16 08:18:57;;;;;;;1.73;1.10;;;13.80;99.90;;;;;;5031106;28;20182;-49
2022/04/16 08:21:25;;;;;;;2.40;1.10;;;14.20;99.90;;;;;;5030194;28;20462;-48
2022/04/16 08:26:43;;;;;;;2.10;1.07;;;14.40;99.90;;;;;;4998872;28;20468;-49
2022/04/16 08:29:08;;;;;;;1.30;1.20;;;14.60;99.90;;;;;;5030509;28;20461;-48
2022/04/16 08:31:34;;;;;;;2.07;1.80;;;14.70;99.90;;;;;;5030020;28;20194;-49
2022/04/16 08:34:00;;;;;;;1.30;1.20;;;14.60;99.90;;;;;;5028717;28;20191;-48
2022/04/16 08:36:26;;;;;;;6.40;1.40;;;14.90;99.90;;;;;;5029376;28;20198;-49
2022/04/16 08:38:52;;;;;;;1.47;1.20;;;14.90;99.90;;;;;;5028455;28;20558;-48
2022/04/16 08:41:18;;;;;;;2.70;1.37;;;14.90;99.90;;;;;;5028864;28;20458;-49
2022/04/16 08:43:44;;;;;;;3.73;1.70;;;15.20;99.90;;;;;;5028871;28;20425;-49
2022/04/16 08:46:10;;;;;;;1.90;1.20;;;15.50;99.90;;;;;;5029514;28;20646;-49
2022/04/16 08:48:36;;;;;;;2.67;1.13;;;16.00;99.90;;;;;;5028923;28;20473;-48
2022/04/16 08:51:02;;;;;;;4.20;1.10;;;16.20;99.90;;;;;;5040615;28;20453;-49
2022/04/16 08:53:28;;;;;;;5.43;1.40;;;16.30;99.90;;;;;;5028616;28;21226;-48
2022/04/16 08:55:54;;;;;;;1.27;1.00;;;16.10;99.90;;;;;;5027481;28;20238;-48
2022/04/16 08:58:19;;;;;;;1.47;1.00;;;16.20;99.90;;;;;;5028910;28;20194;-49
2022/04/16 09:00:45;;;;;;;2.23;1.07;;;16.50;99.90;;;;;;5028976;28;20707;-48
2022/04/16 09:03:11;;;;;;;1.27;1.13;;;16.60;99.90;;;;;;5027689;28;20649;-49
2022/04/16 09:05:37;;;;;;;1.83;1.00;;;16.80;99.90;;;;;;5023374;28;20191;-49
2022/04/16 09:08:04;;;;;;;1.13;1.03;;;16.60;99.90;;;;;;5026202;28;20430;-52
2022/04/16 09:10:32;;;;;;;1.60;1.27;;;16.20;99.90;;;;;;5028043;28;20485;-51
2022/04/16 09:13:00;;;;;;;2.33;1.40;;;16.10;99.90;;;;;;5009441;28;20487;-51
2022/04/16 09:15:27;;;;;;;2.40;1.13;;;16.20;99.90;;;;;;5007691;28;20943;-51
2022/04/16 09:18:03;;;;;;;1.97;1.40;;;16.40;99.90;;;;;;5022988;28;21344;-51
2022/04/16 09:20:33;;;;;;;1.10;1.00;;;16.50;99.90;;;;;;5024239;28;20517;-51
2022/04/16 09:22:59;;;;;;;2.53;1.40;;;16.30;99.90;;;;;;5010698;28;20448;-52
2022/04/16 09:25:29;;;;;;;1.80;1.20;;;15.90;99.90;;;;;;5025485;28;20983;-52
2022/04/16 09:27:54;;;;;;;6.33;1.20;;;15.60;99.90;;;;;;5014019;28;20489;-51
2022/04/16 09:30:29;;;;;;;1.20;1.10;;;15.70;99.90;;;;;;5010080;28;21340;-51
2022/04/16 09:32:59;;;;;;;2.80;1.33;;;15.70;99.90;;;;;;5023534;28;20198;-50
2022/04/16 09:35:36;;;;;;;1.30;1.20;;;15.80;99.90;;;;;;5009434;28;21262;-52
2022/04/16 09:38:04;;;;;;;3.07;1.47;;;15.60;99.90;;;;;;5008606;28;20441;-51
2022/04/16 09:40:31;;;;;;;1.33;1.20;;;15.60;99.90;;;;;;5026489;28;20540;-51
2022/04/16 09:43:00;;;;;;;3.43;1.10;;;15.40;99.90;;;;;;5027869;28;20484;-50
2022/04/16 09:45:26;;;;;;;1.10;1.00;;;15.20;99.90;;;;;;5026616;28;20441;-51
2022/04/16 09:47:53;;;;;;;1.33;1.10;;;14.90;99.90;;;;;;5026781;28;20489;-51
2022/04/16 09:50:21;;;;;;;1.87;1.10;;;14.60;99.90;;;;;;5026504;28;20434;-50
2022/04/16 09:52:51;;;;;;;2.07;1.00;;;14.60;99.90;;;;;;5025371;28;20433;-50
2022/04/16 09:55:18;;;;;;;1.20;1.10;;;14.50;99.90;;;;;;5027251;28;20545;-51
2022/04/16 09:57:46;;;;;;;1.10;1.00;;;14.50;99.90;;;;;;5026655;28;21049;-51
2022/04/16 10:00:12;;;;;;;1.93;1.10;;;14.20;99.90;;;;;;5020709;28;20423;-51
2022/04/16 10:02:41;;;;;;;1.93;1.10;;;14.00;99.90;;;;;;5016949;28;20453;-52
2022/04/16 10:05:09;;;;;;;2.43;1.40;;;14.00;99.90;;;;;;5027074;28;20556;-51
2022/04/16 10:07:36;;;;;;;1.50;1.40;;;13.90;99.90;;;;;;5028043;28;20926;-51
2022/04/16 10:10:06;;;;;;;1.67;1.27;;;14.20;99.90;;;;;;5029145;28;20418;-51
2022/04/16 10:15:22;;;;;;;1.57;1.47;;;14.50;99.90;;;;;;5029241;28;20919;-51
2022/04/16 10:17:50;;;;;;;2.20;1.53;;;14.80;99.90;;;;;;5027691;28;20426;-55
2022/04/16 10:20:20;;;;;;;1.87;1.43;;;15.20;99.90;;;;;;5028477;28;20425;-52
2022/04/16 10:23:03;;;;;;;1.20;1.10;;;15.30;99.90;;;;;;5028952;28;20555;-51
2022/04/16 10:25:40;;;;;;;2.90;1.50;;;15.40;99.90;;;;;;5028835;28;20448;-52
2022/04/16 10:28:16;;;;;;;2.73;1.87;;;15.30;99.90;;;;;;5010131;28;20530;-52
2022/04/16 10:30:53;;;;;;;2.50;1.70;;;15.40;99.90;;;;;;5028530;28;20982;-51
2022/04/16 10:33:20;;;;;;;1.50;1.40;;;15.80;99.90;;;;;;5028110;28;20477;-50
2022/04/16 10:35:57;;;;;;;1.87;1.20;;;16.20;99.90;;;;;;5028404;28;20463;-50
2022/04/16 10:38:31;;;;;;;2.70;1.50;;;16.60;99.90;;;;;;5027711;28;20405;-50
2022/04/16 10:41:12;;;;;;;1.60;1.50;;;16.70;99.90;;;;;;5028839;28;20452;-50
2022/04/16 10:43:38;;;;;;;4.10;1.40;;;17.20;99.90;;;;;;5028657;28;20835;-50
2022/04/16 10:46:09;;;;;;;1.30;1.20;;;17.70;99.90;;;;;;5028377;28;20464;-51
2022/04/16 10:48:38;;;;;;;1.83;1.47;;;18.20;99.90;;;;;;5026293;28;20288;-51
2022/04/16 10:51:05;;;;;;;1.97;1.63;;;18.50;99.90;;;;;;5026937;28;20449;-53
2022/04/16 10:53:39;;;;;;;1.60;1.50;;;18.50;99.90;;;;;;5027468;28;20434;-50
2022/04/16 10:56:16;;;;;;;1.77;1.63;;;18.70;99.90;;;;;;5027322;28;20455;-51
2022/04/16 10:58:45;;;;;;;4.10;2.27;;;19.00;99.90;;;;;;5016547;28;20507;-51
2022/04/16 11:01:23;;;;;;;1.33;1.23;;;18.90;99.90;;;;;;5018865;28;20497;-50
2022/04/16 11:03:49;;;;;;;1.97;1.60;;;18.30;99.90;;;;;;5029378;28;20552;-50
2022/04/16 11:06:16;;;;;;;2.70;1.43;;;18.50;99.90;;;;;;5036739;28;20441;-52
2022/04/16 11:08:45;;;;;;;1.57;1.37;;;18.70;99.90;;;;;;5033889;28;20438;-50
2022/04/16 11:11:12;;;;;;;1.93;1.30;;;18.80;99.90;;;;;;5034283;28;20461;-50
2022/04/16 11:13:39;;;;;;;1.77;1.50;;;19.00;99.90;;;;;;5034091;28;20443;-50
2022/04/16 11:16:05;;;;;;;1.70;1.20;;;18.80;99.90;;;;;;5035427;28;20432;-50
2022/04/16 11:18:45;;;;;;;2.60;1.60;;;18.80;99.90;;;;;;5031600;28;20421;-50
2022/04/16 11:21:20;;;;;;;2.17;1.30;;;18.50;99.90;;;;;;5032209;28;20460;-51
2022/04/16 11:23:47;;;;;;;2.03;1.63;;;18.50;99.90;;;;;;5037618;28;20923;-51
2022/04/16 11:34:30;;;;;;;1.83;1.73;;;20.20;99.90;;;;;;5031630;28;20428;-51
2022/04/16 11:36:56;;;;;;;3.43;2.03;;;20.10;99.90;;;;;;5034387;28;20796;-51
2022/04/16 11:39:30;;;;;;;2.10;1.90;;;20.20;99.90;;;;;;5037367;28;20438;-50
2022/04/16 11:41:59;;;;;;;1.90;1.80;;;20.30;99.90;;;;;;5036304;28;20202;-50
2022/04/16 11:44:38;;;;;;;3.00;1.70;;;20.20;99.90;;;;;;5027817;28;20437;-48
2022/04/16 11:47:17;;;;;;;2.20;1.80;;;20.30;99.90;;;;;;5038479;28;20799;-48
2022/04/16 11:49:52;;;;;;;1.90;1.80;;;19.80;99.90;;;;;;5050332;28;20463;-48
2022/04/16 11:52:31;;;;;;;2.40;2.20;;;20.30;99.90;;;;;;5050639;28;20408;-48
2022/04/16 11:55:00;;;;;;;3.60;2.33;;;20.70;99.90;;;;;;5048393;28;20421;-48
2022/04/16 11:57:26;;;;;;;2.00;1.90;;;20.80;99.90;;;;;;5041363;28;20436;-48
2022/04/16 12:00:06;;;;;;;2.40;2.07;;;20.70;99.90;;;;;;5031205;28;20418;-48
2022/04/16 12:02:34;;;;;;;2.70;2.13;;;20.60;99.90;;;;;;5031877;28;20658;-51
2022/04/16 12:05:07;;;;;;;2.00;1.80;;;20.40;99.90;;;;;;5032502;28;20511;-51
2022/04/16 12:07:32;;;;;;;2.10;1.90;;;20.40;99.90;;;;;;5023686;28;20549;-51
2022/04/16 12:10:02;;;;;;;3.90;1.93;;;20.80;99.90;;;;;;5017585;28;20530;-50
2022/04/16 12:12:28;;;;;;;2.27;2.07;;;20.80;99.90;;;;;;5020218;28;20222;-51
2022/04/16 12:14:54;;;;;;;3.50;2.20;;;20.60;99.90;;;;;;5030046;28;20441;-50
2022/04/16 12:17:26;;;;;;;2.50;2.10;;;19.70;99.90;;;;;;5028348;28;20505;-51
2022/04/16 12:20:02;;;;;;;4.33;2.07;;;19.70;99.90;;;;;;5029895;28;20436;-51
2022/04/16 12:22:28;;;;;;;2.43;2.20;;;20.20;99.90;;;;;;5027124;28;20660;-51
2022/04/16 12:24:53;;;;;;;2.90;1.80;;;20.40;99.90;;;;;;5030386;28;20516;-51
2022/04/16 12:27:26;;;;;;;2.50;2.30;;;20.40;99.90;;;;;;5028870;28;20429;-51
2022/04/16 12:29:55;;;;;;;2.90;2.07;;;20.40;99.90;;;;;;5028973;28;20187;-49
2022/04/16 12:32:26;;;;;;;16.10;14.60;;;20.20;99.90;;;;;;5033725;28;20452;-49
2022/04/16 12:34:52;;;;;;;2212.67;999.90;;;20.60;99.90;;;;;;5027807;28;20786;-49
2022/04/16 12:37:18;;;;;;;298.33;263.17;;;21.00;99.90;;;;;;5028858;28;20441;-49
2022/04/16 12:39:43;;;;;;;131.30;116.57;;;21.40;99.90;;;;;;5014154;28;20450;-49
2022/04/16 12:42:09;;;;;;;72.97;66.50;;;21.40;99.90;;;;;;5027464;28;20942;-50
2022/04/16 12:44:35;;;;;;;16.20;14.73;;;21.30;99.90;;;;;;5026016;28;20187;-49
2022/04/16 12:47:00;;;;;;;948.27;777.63;;;21.50;99.90;;;;;;5025499;28;20499;-49
2022/04/16 12:49:26;;;;;;;71.53;46.83;;;21.60;99.90;;;;;;5029594;28;20234;-49
2022/04/16 12:51:51;;;;;;;4.10;3.77;;;21.70;99.90;;;;;;5029232;28;20738;-49
2022/04/16 12:54:17;;;;;;;16.47;14.83;;;21.60;99.90;;;;;;5029374;28;20179;-49
2022/04/16 12:56:43;;;;;;;12.70;11.37;;;21.60;99.90;;;;;;5029590;28;20651;-48
2022/04/16 12:59:09;;;;;;;2.23;2.03;;;21.60;99.90;;;;;;5042057;28;20674;-52
2022/04/16 13:01:35;;;;;;;4.87;4.23;;;21.40;99.90;;;;;;5031344;28;20588;-51
2022/04/16 13:04:00;;;;;;;2.53;1.70;;;21.50;99.90;;;;;;5031636;28;20441;-51
2022/04/16 13:06:26;;;;;;;2.00;1.80;;;21.40;99.90;;;;;;5036844;28;20190;-49
2022/04/16 13:08:56;;;;;;;2.00;1.90;;;21.50;99.90;;;;;;5032074;28;20187;-50
2022/04/16 13:11:22;;;;;;;2.60;2.40;;;21.60;99.90;;;;;;5029065;28;20278;-49
2022/04/16 13:13:50;;;;;;;2.47;2.27;;;21.50;99.90;;;;;;5038340;28;20529;-47
2022/04/16 13:16:16;;;;;;;2.50;2.30;;;21.30;99.90;;;;;;5022229;28;20222;-47
2022/04/16 13:18:41;;;;;;;3.73;2.13;;;21.40;99.90;;;;;;5028597;28;20835;-47
2022/04/16 13:21:07;;;;;;;2.30;2.10;;;21.40;99.90;;;;;;5029463;28;20293;-47